Weather at Hays Regional Airport

Public forecast

Using degrees Fahrenheit for public forecast. Weather courtesy of forecast.io.

Current aviation weather report (METAR) for Hays Regional Airport

2024/07/18 00:56 (retrieved 29 minutes ago)

KHYS 180056Z AUTO 05009KT 10SM CLR 28/16 A3013 RMK AO2 SLP188 T02780161

Closest aviation forecast (TAF) to Hays Regional Airport

Closest forecast is Marshall Army Air Field, 117.8 nm (218.2 km) E.

2024/07/17 20:00 (retrieved 5 hours ago)

TAF KFRI 172000Z 1720/1902 04005KT 9999 SCT050 QNH3009INS BECMG 1801/1802 05005KT 9999 FEW100 QNH3014INS TX29/1721Z TN20/1810Z